createdAt,value
2023-01-06T00:00:02.739Z,2.59
2023-01-06T00:01:02.889Z,2.60
2023-01-06T00:02:01.929Z,2.62
2023-01-06T00:03:02.415Z,2.61
2023-01-06T00:04:01.943Z,2.60
2023-01-06T00:05:02.457Z,2.59
2023-01-06T00:06:01.994Z,2.58
2023-01-06T00:07:01.851Z,2.59
2023-01-06T00:08:01.626Z,2.61
2023-01-06T00:09:01.907Z,2.60
2023-01-06T00:10:01.823Z,2.61
2023-01-06T00:11:02.168Z,2.60
2023-01-06T00:12:02.368Z,2.59
2023-01-06T00:13:01.912Z,2.58
2023-01-06T00:14:01.970Z,2.58
2023-01-06T00:15:01.858Z,2.58
2023-01-06T00:16:02.501Z,2.59
2023-01-06T00:17:02.155Z,2.59
2023-01-06T00:18:01.990Z,2.57
2023-01-06T00:19:02.492Z,2.59
2023-01-06T00:20:02.568Z,2.58
2023-01-06T00:21:02.154Z,2.59
2023-01-06T00:22:02.530Z,2.59
2023-01-06T00:23:02.100Z,2.56
2023-01-06T00:24:02.608Z,2.56
2023-01-06T00:25:02.218Z,2.57
2023-01-06T00:26:02.137Z,2.57
2023-01-06T00:27:01.931Z,2.60
2023-01-06T00:28:02.131Z,2.58
2023-01-06T00:29:02.050Z,2.56
2023-01-06T00:30:01.935Z,2.56
2023-01-06T00:31:02.168Z,2.59
2023-01-06T00:32:02.409Z,2.55
2023-01-06T00:33:01.950Z,2.57
2023-01-06T00:34:01.969Z,2.58
2023-01-06T00:35:01.840Z,2.58
2023-01-06T00:36:02.214Z,2.56
2023-01-06T00:37:02.215Z,2.60
2023-01-06T00:38:01.817Z,2.55
2023-01-06T00:39:01.854Z,2.56
2023-01-06T00:40:01.941Z,2.59
2023-01-06T00:41:02.488Z,2.56
2023-01-06T00:42:02.267Z,2.56
2023-01-06T00:43:02.110Z,2.59
2023-01-06T00:44:01.998Z,2.57
2023-01-06T00:45:02.583Z,2.55
2023-01-06T00:46:02.294Z,2.57
2023-01-06T00:47:02.128Z,2.58
2023-01-06T00:48:02.722Z,2.59
2023-01-06T00:49:06.668Z,2.58
2023-01-06T00:50:02.372Z,2.56
2023-01-06T00:51:02.195Z,2.58
2023-01-06T00:52:02.327Z,2.55
2023-01-06T00:53:02.763Z,2.56
2023-01-06T00:54:02.584Z,2.56
2023-01-06T00:55:02.436Z,2.56
2023-01-06T00:56:02.473Z,2.57
2023-01-06T00:57:02.041Z,2.55
2023-01-06T00:58:02.030Z,2.54
2023-01-06T00:59:02.395Z,2.58
2023-01-06T01:00:02.095Z,2.56
2023-01-06T01:01:02.037Z,2.56
2023-01-06T01:02:03.230Z,2.57
2023-01-06T01:03:02.907Z,2.57
2023-01-06T01:04:02.852Z,2.56
2023-01-06T01:05:02.552Z,2.55
2023-01-06T01:06:03.100Z,2.58
2023-01-06T01:07:02.653Z,2.53
2023-01-06T01:08:03.174Z,2.54
2023-01-06T01:09:02.678Z,2.56
2023-01-06T01:10:03.126Z,2.56
2023-01-06T01:11:03.354Z,2.54
2023-01-06T01:12:03.272Z,2.58
2023-01-06T01:13:02.867Z,2.56
2023-01-06T01:14:02.692Z,2.55
2023-01-06T01:15:03.187Z,2.54
2023-01-06T01:16:02.771Z,2.55
2023-01-06T01:17:02.348Z,2.57
2023-01-06T01:18:02.820Z,2.57
2023-01-06T01:19:02.495Z,2.56
2023-01-06T01:20:02.346Z,2.54
2023-01-06T01:21:02.882Z,2.56
2023-01-06T01:22:02.433Z,2.54
2023-01-06T01:23:02.921Z,2.55
2023-01-06T01:24:02.466Z,2.55
2023-01-06T01:25:02.934Z,2.55
2023-01-06T01:26:02.449Z,2.56
2023-01-06T01:27:02.934Z,2.55
2023-01-06T01:28:03.462Z,2.56
2023-01-06T01:29:03.047Z,2.57
2023-01-06T01:30:02.860Z,2.55
2023-01-06T01:31:03.408Z,2.55
2023-01-06T01:32:02.471Z,2.55
2023-01-06T01:33:02.405Z,2.57
2023-01-06T01:34:02.106Z,2.55
2023-01-06T01:35:02.622Z,2.56
2023-01-06T01:36:02.409Z,2.54
2023-01-06T01:37:02.187Z,2.54
2023-01-06T01:38:02.601Z,2.56
2023-01-06T01:39:02.502Z,2.56
2023-01-06T01:40:02.353Z,2.56
2023-01-06T01:41:02.119Z,2.55
2023-01-06T01:42:02.703Z,2.54
2023-01-06T01:43:02.576Z,2.56
2023-01-06T01:44:02.465Z,2.54
2023-01-06T01:45:03.011Z,2.56
2023-01-06T01:46:02.630Z,2.54
2023-01-06T01:47:02.210Z,2.56
2023-01-06T01:48:02.283Z,2.58
2023-01-06T01:49:02.118Z,2.56
2023-01-06T01:50:02.543Z,2.56
2023-01-06T01:51:02.287Z,2.54
2023-01-06T01:52:02.677Z,2.55
2023-01-06T01:53:02.433Z,2.56
2023-01-06T01:54:02.989Z,2.57
2023-01-06T01:55:02.769Z,2.56
2023-01-06T01:56:02.646Z,2.57
2023-01-06T01:57:01.986Z,2.55
2023-01-06T01:58:02.436Z,2.57
2023-01-06T01:59:02.280Z,2.56
2023-01-06T02:00:01.963Z,2.55
2023-01-06T02:01:02.507Z,2.55
2023-01-06T02:02:02.860Z,2.55
2023-01-06T02:03:02.760Z,2.56
2023-01-06T02:04:02.727Z,2.54
2023-01-06T02:05:02.567Z,2.57
2023-01-06T02:06:02.424Z,2.56
2023-01-06T02:07:02.694Z,2.53
2023-01-06T02:08:02.674Z,2.55
2023-01-06T02:09:03.155Z,2.56
2023-01-06T02:10:02.730Z,2.57
2023-01-06T02:11:03.227Z,2.56
2023-01-06T02:12:02.518Z,2.56
2023-01-06T02:13:02.295Z,2.55
2023-01-06T02:14:02.800Z,2.55
2023-01-06T02:15:02.637Z,2.56
2023-01-06T02:16:02.497Z,2.54
2023-01-06T02:17:03.036Z,2.56
2023-01-06T02:18:02.859Z,2.53
2023-01-06T02:19:02.790Z,2.55
2023-01-06T02:20:03.186Z,2.55
2023-01-06T02:21:02.964Z,2.55
2023-01-06T02:22:02.514Z,2.57
2023-01-06T02:23:02.597Z,2.56
2023-01-06T02:24:02.530Z,2.57
2023-01-06T02:25:02.340Z,2.57
2023-01-06T02:26:02.249Z,2.54
2023-01-06T02:27:02.436Z,2.57
2023-01-06T02:28:02.961Z,2.58
2023-01-06T02:29:02.837Z,2.55
2023-01-06T02:30:02.752Z,2.56
2023-01-06T02:31:02.956Z,2.57
2023-01-06T02:32:02.585Z,2.56
2023-01-06T02:33:02.225Z,2.55
2023-01-06T02:34:02.661Z,2.54
2023-01-06T02:35:02.268Z,2.56
2023-01-06T02:36:02.107Z,2.56
2023-01-06T02:37:02.631Z,2.54
2023-01-06T02:38:02.191Z,2.56
2023-01-06T02:39:02.116Z,2.53
2023-01-06T02:40:02.213Z,2.57
2023-01-06T02:41:02.676Z,2.56
2023-01-06T02:42:02.992Z,2.56
2023-01-06T02:43:02.719Z,2.56
2023-01-06T02:44:02.553Z,2.54
2023-01-06T02:45:03.051Z,2.55
2023-01-06T02:46:02.720Z,2.54
2023-01-06T02:47:03.051Z,2.55
2023-01-06T02:48:02.840Z,2.54
2023-01-06T02:49:02.695Z,2.56
2023-01-06T02:50:03.053Z,2.56
2023-01-06T02:51:03.065Z,2.56
2023-01-06T02:52:02.661Z,2.54
2023-01-06T02:53:02.421Z,2.55
2023-01-06T02:54:02.309Z,2.56
2023-01-06T02:55:02.140Z,2.56
2023-01-06T02:56:02.771Z,2.54
2023-01-06T02:57:03.020Z,2.54
2023-01-06T02:58:02.695Z,2.56
2023-01-06T02:59:02.480Z,2.55
2023-01-06T03:00:02.688Z,2.56
2023-01-06T03:01:02.670Z,2.56
2023-01-06T03:02:02.404Z,2.55
2023-01-06T03:03:01.817Z,2.55
2023-01-06T03:04:02.212Z,2.54
2023-01-06T03:05:01.925Z,2.58
2023-01-06T03:06:01.777Z,2.54
2023-01-06T03:07:02.351Z,2.53
2023-01-06T03:08:01.915Z,2.55
2023-01-06T03:09:01.809Z,2.53
2023-01-06T03:10:01.668Z,2.53
2023-01-06T03:11:02.181Z,2.53
2023-01-06T03:12:02.741Z,2.54
2023-01-06T03:13:02.259Z,2.54
2023-01-06T03:14:02.508Z,2.54
2023-01-06T03:15:02.324Z,2.54
2023-01-06T03:16:02.389Z,2.54
2023-01-06T03:17:02.872Z,2.53
2023-01-06T03:18:02.606Z,2.55
2023-01-06T03:19:02.943Z,2.53
2023-01-06T03:20:02.647Z,2.55
2023-01-06T03:21:02.925Z,2.53
2023-01-06T03:22:01.969Z,2.54
2023-01-06T03:23:01.678Z,2.55
2023-01-06T03:24:02.170Z,2.55
2023-01-06T03:25:02.055Z,2.56
2023-01-06T03:26:01.950Z,2.54
2023-01-06T03:27:01.799Z,2.55
2023-01-06T03:28:01.908Z,2.54
2023-01-06T03:29:02.308Z,2.53
2023-01-06T03:30:02.252Z,2.53
2023-01-06T03:31:02.265Z,2.52
2023-01-06T03:32:02.099Z,2.56
2023-01-06T03:33:02.656Z,2.55
2023-01-06T03:34:02.521Z,2.55
2023-01-06T03:35:02.661Z,2.54
2023-01-06T03:36:02.525Z,2.54
2023-01-06T03:37:02.357Z,2.53
2023-01-06T03:38:02.904Z,2.54
2023-01-06T03:39:02.387Z,2.53
2023-01-06T03:40:02.833Z,2.52
2023-01-06T03:41:02.696Z,2.53
2023-01-06T03:42:01.627Z,2.56
2023-01-06T03:43:02.157Z,2.51
2023-01-06T03:44:01.924Z,2.56
2023-01-06T03:45:01.814Z,2.53
2023-01-06T03:46:02.101Z,2.53
2023-01-06T03:47:01.664Z,2.54
2023-01-06T03:48:01.781Z,2.55
2023-01-06T03:49:01.685Z,2.53
2023-01-06T03:50:02.268Z,2.52
2023-01-06T03:51:01.777Z,2.52
2023-01-06T03:52:02.352Z,2.53
2023-01-06T03:53:02.880Z,2.54
2023-01-06T03:54:02.524Z,2.52
2023-01-06T03:55:02.289Z,2.53
2023-01-06T03:56:02.875Z,2.53
2023-01-06T03:57:01.688Z,2.53
2023-01-06T03:58:01.573Z,2.55
2023-01-06T03:59:02.041Z,2.54
2023-01-06T04:00:01.667Z,2.55
2023-01-06T04:01:01.569Z,2.55
2023-01-06T04:02:03.465Z,2.52
2023-01-06T04:03:03.303Z,2.52
2023-01-06T04:04:03.255Z,2.45
2023-01-06T04:05:03.228Z,2.44
2023-01-06T04:06:03.111Z,2.41
2023-01-06T04:07:02.749Z,2.41
2023-01-06T04:08:02.751Z,2.38
2023-01-06T04:09:03.288Z,2.40
2023-01-06T04:10:02.836Z,2.38
2023-01-06T04:11:02.616Z,2.36
2023-01-06T04:12:03.101Z,2.38
2023-01-06T04:13:03.649Z,2.37
2023-01-06T04:14:03.526Z,2.35
2023-01-06T04:15:03.443Z,2.36
2023-01-06T04:16:03.168Z,2.35
2023-01-06T04:17:02.762Z,2.36
2023-01-06T04:18:02.673Z,2.35
2023-01-06T04:19:02.709Z,2.33
2023-01-06T04:20:03.134Z,2.35
2023-01-06T04:21:02.884Z,2.33
2023-01-06T04:22:03.561Z,2.34
2023-01-06T04:23:03.436Z,2.32
2023-01-06T04:24:03.314Z,2.33
2023-01-06T04:25:03.198Z,2.31
2023-01-06T04:26:03.746Z,2.33
2023-01-06T04:27:03.286Z,2.32
2023-01-06T04:28:03.397Z,2.32
2023-01-06T04:29:03.268Z,2.32
2023-01-06T04:30:03.114Z,2.33
2023-01-06T04:31:03.793Z,2.31
2023-01-06T04:32:03.461Z,2.31
2023-01-06T04:33:03.895Z,2.30
2023-01-06T04:34:03.395Z,2.32
2023-01-06T04:35:03.284Z,2.32
2023-01-06T04:36:03.731Z,2.29
2023-01-06T04:37:03.483Z,2.31
2023-01-06T04:38:03.990Z,2.31
2023-01-06T04:39:03.568Z,2.29
2023-01-06T04:40:03.909Z,2.30
2023-01-06T04:41:03.387Z,2.31
2023-01-06T04:42:03.329Z,2.31
2023-01-06T04:43:02.966Z,2.31
2023-01-06T04:44:02.745Z,2.30
2023-01-06T04:45:03.283Z,2.32
2023-01-06T04:46:02.892Z,2.32
2023-01-06T04:47:03.516Z,2.30
2023-01-06T04:48:03.258Z,2.32
2023-01-06T04:49:03.741Z,2.31
2023-01-06T04:50:03.574Z,2.30
2023-01-06T04:51:03.359Z,2.30
2023-01-06T04:53:02.915Z,2.29
2023-01-06T04:54:02.753Z,2.28
2023-01-06T04:55:03.141Z,2.29
2023-01-06T04:56:03.052Z,2.28
2023-01-06T04:57:03.178Z,2.31
2023-01-06T04:58:03.232Z,2.27
2023-01-06T04:59:02.749Z,2.28
2023-01-06T05:00:02.964Z,2.28
2023-01-06T05:01:03.161Z,3.69
2023-01-06T05:02:02.180Z,3.92
2023-01-06T05:03:02.185Z,4.10
2023-01-06T05:04:02.035Z,4.21
2023-01-06T05:05:02.413Z,4.33
2023-01-06T05:06:02.088Z,4.41
2023-01-06T05:07:02.480Z,4.47
2023-01-06T05:08:02.304Z,4.55
2023-01-06T05:09:02.088Z,4.61
2023-01-06T05:10:02.590Z,4.66
2023-01-06T05:11:02.391Z,4.67
2023-01-06T05:12:02.884Z,4.76
2023-01-06T05:13:02.650Z,4.79
2023-01-06T05:14:03.154Z,4.83
2023-01-06T05:15:02.760Z,4.87
2023-01-06T05:16:02.640Z,4.89
2023-01-06T05:17:02.265Z,4.94
2023-01-06T05:18:01.946Z,5.05
2023-01-06T05:19:02.581Z,5.03
2023-01-06T05:20:02.154Z,5.01
2023-01-06T05:21:02.419Z,5.04
2023-01-06T05:22:02.540Z,5.07
2023-01-06T05:23:03.117Z,5.08
2023-01-06T05:24:03.140Z,5.11
2023-01-06T05:25:02.692Z,5.12
2023-01-06T05:26:02.439Z,5.13
2023-01-06T05:27:03.185Z,5.17
2023-01-06T05:28:02.850Z,4.62
2023-01-06T05:29:02.739Z,4.40
2023-01-06T05:30:03.184Z,5.06
2023-01-06T05:31:02.732Z,5.13
2023-01-06T05:32:02.329Z,5.15
2023-01-06T05:33:02.473Z,5.22
2023-01-06T05:34:01.920Z,5.22
2023-01-06T05:35:01.877Z,5.24
2023-01-06T05:36:01.920Z,5.20
2023-01-06T05:37:02.476Z,5.26
2023-01-06T05:38:02.243Z,5.26
2023-01-06T05:39:02.609Z,5.27
2023-01-06T05:40:02.240Z,5.29
2023-01-06T05:41:02.144Z,5.31
2023-01-06T05:42:02.640Z,5.31
2023-01-06T05:43:02.452Z,5.33
2023-01-06T05:44:02.344Z,5.34
2023-01-06T05:45:02.176Z,5.33
2023-01-06T05:46:02.879Z,5.36
2023-01-06T05:47:02.345Z,5.36
2023-01-06T05:48:01.932Z,5.38
2023-01-06T05:49:01.833Z,5.39
2023-01-06T05:50:01.877Z,5.37
2023-01-06T05:51:01.882Z,5.38
2023-01-06T05:52:02.342Z,5.37
2023-01-06T05:53:02.176Z,5.39
2023-01-06T05:54:02.022Z,5.40
2023-01-06T05:55:01.930Z,4.91
2023-01-06T05:56:02.447Z,4.67
2023-01-06T05:57:02.505Z,4.57
2023-01-06T05:58:02.404Z,4.44
2023-01-06T05:59:02.126Z,4.95
2023-01-06T06:00:01.952Z,5.19
2023-01-06T06:01:02.414Z,5.29
2023-01-06T06:02:03.015Z,5.34
2023-01-06T06:03:02.648Z,5.38
2023-01-06T06:04:03.076Z,5.41
2023-01-06T06:05:02.672Z,5.40
2023-01-06T06:06:02.512Z,5.43
2023-01-06T06:07:03.213Z,5.44
2023-01-06T06:08:03.007Z,5.43
2023-01-06T06:09:02.892Z,5.46
2023-01-06T06:10:02.717Z,5.46
2023-01-06T06:11:02.684Z,5.47
2023-01-06T06:12:03.262Z,5.44
2023-01-06T06:13:02.894Z,5.43
2023-01-06T06:14:02.730Z,5.45
2023-01-06T06:15:02.957Z,5.44
2023-01-06T06:16:03.362Z,5.52
2023-01-06T06:17:03.648Z,5.51
2023-01-06T06:18:03.363Z,5.53
2023-01-06T06:19:03.239Z,5.52
2023-01-06T06:20:03.767Z,5.51
2023-01-06T06:21:03.462Z,5.52
2023-01-06T06:22:02.899Z,5.53
2023-01-06T06:23:03.021Z,5.51
2023-01-06T06:24:03.009Z,5.53
2023-01-06T06:25:02.594Z,5.52
2023-01-06T06:26:02.393Z,5.54
2023-01-06T06:27:03.077Z,5.53
2023-01-06T06:28:02.610Z,5.51
2023-01-06T06:29:02.498Z,5.54
2023-01-06T06:30:02.714Z,5.53
2023-01-06T06:31:02.687Z,5.54
2023-01-06T06:32:03.298Z,5.55
2023-01-06T06:33:02.928Z,5.53
2023-01-06T06:34:03.092Z,5.55
2023-01-06T06:35:02.948Z,5.55
2023-01-06T06:36:02.995Z,5.56
2023-01-06T06:37:03.469Z,5.56
2023-01-06T06:38:03.589Z,5.55
2023-01-06T06:39:03.384Z,5.55
2023-01-06T06:40:02.981Z,5.55
2023-01-06T06:41:02.919Z,5.57
2023-01-06T06:42:03.369Z,5.58
2023-01-06T06:43:03.017Z,5.56
2023-01-06T06:44:02.667Z,5.56
2023-01-06T06:45:02.517Z,5.55
2023-01-06T06:46:03.061Z,5.55
2023-01-06T06:47:02.744Z,5.56
2023-01-06T06:48:03.198Z,5.56
2023-01-06T06:49:03.384Z,5.56
2023-01-06T06:50:03.058Z,5.58
2023-01-06T06:51:02.750Z,5.59
2023-01-06T06:52:02.295Z,5.57
2023-01-06T06:53:02.804Z,5.56
2023-01-06T06:55:02.559Z,5.56
2023-01-06T06:56:02.356Z,5.58
2023-01-06T06:57:02.976Z,5.59
2023-01-06T06:58:02.636Z,5.57
2023-01-06T06:59:02.595Z,5.59
2023-01-06T07:00:02.465Z,5.57
2023-01-06T07:01:02.975Z,5.59
2023-01-06T07:02:02.817Z,5.57
2023-01-06T07:03:02.885Z,5.58
2023-01-06T07:04:02.747Z,5.58
2023-01-06T07:05:02.661Z,5.58
2023-01-06T07:06:03.229Z,5.58
2023-01-06T07:08:03.392Z,5.60
2023-01-06T07:09:03.102Z,5.58
2023-01-06T07:10:02.972Z,5.58
2023-01-06T07:11:03.532Z,5.60
2023-01-06T07:12:03.198Z,5.59
2023-01-06T07:13:05.001Z,5.59
2023-01-06T07:14:03.580Z,5.59
2023-01-06T07:15:03.109Z,5.58
2023-01-06T07:16:03.258Z,5.59
2023-01-06T07:17:02.456Z,5.59
2023-01-06T07:18:02.544Z,5.59
2023-01-06T07:19:02.350Z,5.59
2023-01-06T07:21:02.398Z,5.61
2023-01-06T07:22:02.952Z,5.62
2023-01-06T07:23:03.499Z,5.60
2023-01-06T07:24:03.098Z,5.59
2023-01-06T07:25:02.967Z,5.61
2023-01-06T07:26:03.417Z,5.61
2023-01-06T07:27:02.776Z,5.60
2023-01-06T07:28:02.948Z,5.58
2023-01-06T07:29:02.720Z,5.60
2023-01-06T07:30:02.394Z,5.61
2023-01-06T07:31:02.429Z,4.94
2023-01-06T07:32:03.064Z,4.80
2023-01-06T07:33:02.994Z,4.70
2023-01-06T07:34:03.448Z,4.59
2023-01-06T07:35:03.361Z,4.54
2023-01-06T07:36:03.499Z,4.47
2023-01-06T07:37:03.241Z,4.39
2023-01-06T07:38:03.250Z,4.36
2023-01-06T07:39:03.224Z,4.28
2023-01-06T07:40:03.104Z,4.25
2023-01-06T07:41:03.713Z,4.21
2023-01-06T07:42:02.854Z,4.15
2023-01-06T07:43:02.884Z,4.12
2023-01-06T07:44:02.727Z,4.09
2023-01-06T07:45:03.285Z,4.07
2023-01-06T07:46:02.915Z,4.01
2023-01-06T07:47:02.890Z,3.98
2023-01-06T07:48:02.910Z,3.95
2023-01-06T07:49:02.804Z,3.92
2023-01-06T07:50:03.096Z,3.90
2023-01-06T07:51:03.110Z,3.87
2023-01-06T07:52:03.107Z,3.82
2023-01-06T07:53:03.043Z,3.81
2023-01-06T07:54:03.031Z,3.79
2023-01-06T07:55:02.921Z,3.76
2023-01-06T07:56:03.479Z,3.76
2023-01-06T07:57:03.231Z,3.72
2023-01-06T07:58:03.265Z,3.69
2023-01-06T07:59:03.472Z,3.67
2023-01-06T08:00:03.504Z,3.65
2023-01-06T08:01:02.996Z,3.62
2023-01-06T08:02:02.822Z,3.63
2023-01-06T08:03:02.970Z,3.58
2023-01-06T08:04:02.755Z,3.57
2023-01-06T08:05:02.930Z,3.55
2023-01-06T08:06:02.941Z,3.53
2023-01-06T08:07:03.262Z,3.52
2023-01-06T08:08:03.294Z,3.48
2023-01-06T08:09:03.308Z,3.47
2023-01-06T08:10:03.187Z,3.47
2023-01-06T08:11:03.398Z,3.43
2023-01-06T08:12:03.241Z,3.43
2023-01-06T08:13:03.293Z,3.43
2023-01-06T08:14:03.191Z,3.39
2023-01-06T08:15:03.311Z,3.40
2023-01-06T08:16:03.284Z,3.38
2023-01-06T08:17:02.977Z,3.36
2023-01-06T08:18:02.895Z,3.35
2023-01-06T08:19:02.906Z,3.34
2023-01-06T08:20:03.000Z,3.31
2023-01-06T08:21:02.864Z,3.32
2023-01-06T08:22:03.592Z,3.31
2023-01-06T08:23:03.277Z,3.29
2023-01-06T08:24:03.344Z,3.28
2023-01-06T08:25:03.602Z,3.27
2023-01-06T08:26:03.575Z,3.26
2023-01-06T08:27:03.595Z,3.23
2023-01-06T08:28:04.255Z,3.24
2023-01-06T08:29:03.717Z,3.23
2023-01-06T08:30:03.741Z,3.22
2023-01-06T08:31:03.969Z,3.20
2023-01-06T08:32:10.467Z,3.19
2023-01-06T08:33:02.860Z,3.18
2023-01-06T08:34:03.534Z,3.18
2023-01-06T08:35:03.298Z,3.14
2023-01-06T08:36:03.287Z,3.17
2023-01-06T08:37:02.975Z,3.14
2023-01-06T08:38:03.202Z,3.15
2023-01-06T08:39:03.185Z,3.11
2023-01-06T08:40:02.957Z,3.12
2023-01-06T08:41:02.946Z,3.11
2023-01-06T08:42:03.522Z,3.11
2023-01-06T08:43:03.543Z,3.11
2023-01-06T08:44:03.251Z,3.09
2023-01-06T08:45:03.345Z,3.08
2023-01-06T08:46:03.719Z,3.07
2023-01-06T08:47:03.339Z,3.06
2023-01-06T08:48:02.970Z,3.05
2023-01-06T08:49:03.020Z,3.05
2023-01-06T08:50:02.934Z,3.05
2023-01-06T08:51:02.851Z,3.04
2023-01-06T08:52:02.973Z,3.03
2023-01-06T08:53:02.756Z,3.01
2023-01-06T08:54:02.673Z,3.01
2023-01-06T08:55:02.518Z,3.00
2023-01-06T08:56:02.466Z,3.01
2023-01-06T08:57:03.170Z,2.99
2023-01-06T08:58:02.981Z,2.99
2023-01-06T08:59:03.010Z,2.99
2023-01-06T09:00:02.964Z,2.98
2023-01-06T09:01:02.902Z,2.98
2023-01-06T09:02:02.837Z,2.97
2023-01-06T09:03:02.946Z,2.96
2023-01-06T09:04:02.200Z,2.96
2023-01-06T09:05:02.353Z,2.93
2023-01-06T09:06:02.664Z,2.93
2023-01-06T09:07:03.027Z,2.94
2023-01-06T09:08:02.594Z,2.94
2023-01-06T09:09:02.648Z,2.93
2023-01-06T09:10:02.687Z,2.91
2023-01-06T09:11:03.069Z,2.91
2023-01-06T09:12:02.588Z,2.90
2023-01-06T09:13:02.275Z,2.92
2023-01-06T09:14:02.041Z,2.90
2023-01-06T09:15:02.011Z,2.88
2023-01-06T09:16:02.030Z,2.90
2023-01-06T09:17:02.750Z,2.87
2023-01-06T09:18:02.548Z,2.88
2023-01-06T09:19:02.697Z,2.86
2023-01-06T09:20:02.422Z,2.87
2023-01-06T09:21:02.432Z,2.85
2023-01-06T09:22:03.153Z,2.86
2023-01-06T09:23:02.851Z,2.86
2023-01-06T09:24:02.804Z,2.87
2023-01-06T09:25:02.815Z,2.83
2023-01-06T09:26:02.822Z,2.83
2023-01-06T09:27:01.873Z,2.82
2023-01-06T09:28:01.882Z,2.84
2023-01-06T09:29:01.878Z,2.83
2023-01-06T09:30:01.871Z,2.82
2023-01-06T09:31:02.083Z,2.81
2023-01-06T09:32:02.140Z,2.81
2023-01-06T09:33:02.150Z,2.81
2023-01-06T09:34:02.182Z,2.81
2023-01-06T09:35:02.889Z,2.81
2023-01-06T09:36:02.527Z,2.79
2023-01-06T09:37:02.957Z,2.79
2023-01-06T09:38:03.012Z,2.78
2023-01-06T09:39:03.195Z,2.80
2023-01-06T09:40:02.893Z,2.77
2023-01-06T09:41:02.906Z,2.78
2023-01-06T09:42:02.197Z,2.76
2023-01-06T09:43:02.132Z,2.77
2023-01-06T09:44:02.040Z,2.76
2023-01-06T09:45:01.871Z,2.76
2023-01-06T09:46:02.060Z,2.76
2023-01-06T09:47:02.060Z,2.76
2023-01-06T09:48:02.063Z,2.74
2023-01-06T09:49:02.102Z,2.74
2023-01-06T09:50:01.965Z,2.73
2023-01-06T09:51:02.086Z,2.73
2023-01-06T09:52:02.453Z,2.73
2023-01-06T09:53:02.469Z,2.74
2023-01-06T09:54:02.388Z,2.71
2023-01-06T09:55:02.324Z,2.72
2023-01-06T09:56:02.325Z,2.71
2023-01-06T09:57:02.319Z,2.71
2023-01-06T09:58:02.236Z,2.72
2023-01-06T09:59:02.796Z,2.73
2023-01-06T10:00:02.637Z,2.70
2023-01-06T10:01:02.422Z,2.69
2023-01-06T10:02:02.146Z,2.71
2023-01-06T10:03:02.308Z,2.69
2023-01-06T10:04:02.195Z,2.69
2023-01-06T10:05:02.277Z,2.68
2023-01-06T10:06:02.312Z,2.67
2023-01-06T10:07:02.441Z,2.67
2023-01-06T10:08:02.464Z,2.67
2023-01-06T10:09:02.526Z,2.68
2023-01-06T10:10:02.548Z,2.64
2023-01-06T10:11:02.677Z,2.67
2023-01-06T10:12:01.735Z,2.64
2023-01-06T10:13:01.961Z,2.65
2023-01-06T10:14:01.921Z,2.64
2023-01-06T10:15:01.930Z,2.65
2023-01-06T10:16:02.013Z,2.63
2023-01-06T10:17:01.953Z,2.63
2023-01-06T10:18:02.183Z,2.63
2023-01-06T10:19:02.187Z,2.63
2023-01-06T10:20:02.340Z,2.63
2023-01-06T10:21:02.327Z,2.63
2023-01-06T10:22:02.337Z,2.61
2023-01-06T10:23:02.631Z,2.63
2023-01-06T10:24:02.294Z,2.61
2023-01-06T10:25:02.226Z,2.61
2023-01-06T10:26:02.243Z,2.61
2023-01-06T10:27:01.932Z,2.58
2023-01-06T10:28:01.974Z,2.59
2023-01-06T10:29:01.991Z,2.60
2023-01-06T10:30:01.945Z,2.60
2023-01-06T10:31:02.401Z,2.60
2023-01-06T10:32:02.088Z,2.58
2023-01-06T10:33:01.877Z,2.56
2023-01-06T10:34:01.826Z,2.59
2023-01-06T10:35:02.139Z,2.57
2023-01-06T10:36:01.951Z,2.55
2023-01-06T10:37:02.684Z,2.57
2023-01-06T10:38:02.703Z,2.58
2023-01-06T10:39:03.018Z,2.56
2023-01-06T10:40:03.031Z,2.56
2023-01-06T10:41:02.734Z,2.57
2023-01-06T10:42:02.389Z,2.54
2023-01-06T10:43:02.267Z,2.56
2023-01-06T10:44:02.209Z,2.56
2023-01-06T10:45:02.175Z,2.54
2023-01-06T10:46:02.125Z,2.55
2023-01-06T10:47:02.233Z,2.54
2023-01-06T10:48:02.191Z,2.54
2023-01-06T10:49:01.979Z,2.54
2023-01-06T10:50:01.480Z,2.54
2023-01-06T10:51:02.125Z,2.51
2023-01-06T10:52:01.860Z,2.50
2023-01-06T10:53:01.801Z,2.51
2023-01-06T10:54:01.603Z,2.51
2023-01-06T10:55:02.143Z,2.51
2023-01-06T10:56:01.865Z,2.51
2023-01-06T10:57:01.886Z,2.50
2023-01-06T10:58:01.916Z,2.50
2023-01-06T10:59:01.938Z,2.50
2023-01-06T11:00:01.938Z,2.50
2023-01-06T11:01:02.199Z,2.50
2023-01-06T11:02:02.260Z,2.50
2023-01-06T11:03:14.358Z,2.50
2023-01-06T11:04:02.073Z,2.50
2023-01-06T11:05:02.070Z,2.48
2023-01-06T11:06:02.063Z,2.48
2023-01-06T11:07:02.787Z,2.48
2023-01-06T11:08:02.805Z,2.48
2023-01-06T11:09:03.053Z,2.47
2023-01-06T11:10:02.842Z,2.47
2023-01-06T11:11:02.464Z,2.49
2023-01-06T11:12:02.846Z,2.47
2023-01-06T11:13:03.104Z,2.48
2023-01-06T11:14:02.845Z,2.48
2023-01-06T11:15:02.681Z,2.47
2023-01-06T11:16:03.040Z,2.46
2023-01-06T11:17:02.573Z,2.46
2023-01-06T11:18:02.508Z,2.45
2023-01-06T11:19:02.385Z,2.46
2023-01-06T11:20:02.284Z,2.46
2023-01-06T11:21:02.277Z,2.45
2023-01-06T11:22:02.978Z,2.45
2023-01-06T11:23:02.719Z,2.44
2023-01-06T11:24:02.776Z,2.44
2023-01-06T11:25:02.812Z,2.47
2023-01-06T11:26:02.798Z,2.46
2023-01-06T11:27:02.573Z,2.44
2023-01-06T11:28:02.130Z,2.47
2023-01-06T11:29:02.171Z,2.44
2023-01-06T11:30:02.519Z,2.46
2023-01-06T11:31:02.499Z,2.44
2023-01-06T11:32:03.078Z,2.43
2023-01-06T11:33:03.069Z,2.43
2023-01-06T11:34:03.123Z,2.43
2023-01-06T11:35:03.072Z,2.42
2023-01-06T11:36:02.822Z,2.41
2023-01-06T11:37:02.589Z,2.43
2023-01-06T11:38:02.370Z,2.40
2023-01-06T11:39:02.402Z,2.43
2023-01-06T11:40:10.795Z,2.41
2023-01-06T11:41:02.437Z,2.41
2023-01-06T11:42:02.995Z,2.42
2023-01-06T11:43:03.138Z,2.40
2023-01-06T11:44:02.855Z,2.42
2023-01-06T11:45:02.896Z,2.39
2023-01-06T11:46:02.616Z,2.39
2023-01-06T11:47:02.403Z,2.41
2023-01-06T11:48:02.016Z,2.38
2023-01-06T11:49:02.045Z,2.37
2023-01-06T11:50:02.103Z,2.41
2023-01-06T11:51:02.197Z,2.38
2023-01-06T11:52:02.963Z,2.37
2023-01-06T11:53:02.776Z,2.38
2023-01-06T11:54:02.821Z,2.39
2023-01-06T11:55:02.735Z,2.38
2023-01-06T11:56:02.782Z,2.37
2023-01-06T11:57:02.589Z,2.38
2023-01-06T11:58:02.239Z,2.38
2023-01-06T11:59:02.353Z,2.37
2023-01-06T12:00:02.203Z,2.37
2023-01-06T12:01:02.460Z,2.37
2023-01-06T12:02:03.316Z,2.36
2023-01-06T12:03:02.971Z,2.38
2023-01-06T12:04:02.950Z,2.36
2023-01-06T12:05:02.954Z,2.36
2023-01-06T12:06:02.965Z,2.37
2023-01-06T12:07:02.077Z,2.37
2023-01-06T12:08:02.649Z,2.36
2023-01-06T12:09:02.752Z,2.36
2023-01-06T12:10:02.501Z,2.36
2023-01-06T12:11:02.539Z,2.34
2023-01-06T12:12:02.635Z,2.35
2023-01-06T12:13:02.692Z,2.34
2023-01-06T12:14:13.375Z,2.35
2023-01-06T12:15:03.635Z,2.34
2023-01-06T12:16:02.726Z,2.34
2023-01-06T12:17:02.893Z,2.33
2023-01-06T12:18:03.067Z,2.34
2023-01-06T12:19:02.979Z,2.33
2023-01-06T12:20:03.033Z,2.33
2023-01-06T12:21:03.031Z,2.34
2023-01-06T12:22:03.464Z,2.32
2023-01-06T12:23:02.563Z,2.34
2023-01-06T12:24:02.479Z,2.32
2023-01-06T12:25:02.572Z,2.33
2023-01-06T12:26:02.572Z,2.34
2023-01-06T12:27:02.588Z,2.31
2023-01-06T12:28:03.328Z,2.31
2023-01-06T12:29:03.053Z,2.34
2023-01-06T12:30:03.411Z,2.32
2023-01-06T12:31:03.326Z,2.31
2023-01-06T12:32:03.223Z,2.32
2023-01-06T12:33:03.027Z,2.30
2023-01-06T12:34:02.865Z,2.33
2023-01-06T12:35:02.548Z,2.30
2023-01-06T12:36:02.455Z,2.31
2023-01-06T12:37:02.522Z,2.31
2023-01-06T12:38:03.164Z,2.34
2023-01-06T12:39:03.229Z,2.29
2023-01-06T12:40:03.179Z,2.30
2023-01-06T12:41:03.273Z,2.33
2023-01-06T12:42:03.325Z,2.32
2023-01-06T12:43:03.251Z,2.31
2023-01-06T12:44:03.312Z,2.30
2023-01-06T12:45:03.390Z,2.31
2023-01-06T12:46:03.308Z,2.31
2023-01-06T12:47:03.082Z,2.29
2023-01-06T12:48:02.677Z,2.33
2023-01-06T12:49:02.973Z,2.32
2023-01-06T12:50:03.058Z,2.32
2023-01-06T12:51:02.864Z,2.30
2023-01-06T12:52:02.964Z,2.30
2023-01-06T12:53:07.415Z,2.30
2023-01-06T12:54:02.945Z,2.30
2023-01-06T12:55:02.985Z,2.31
2023-01-06T12:56:03.070Z,2.31
2023-01-06T12:57:03.162Z,2.30
2023-01-06T12:58:03.213Z,2.30
2023-01-06T12:59:03.245Z,2.29
2023-01-06T13:00:03.316Z,2.29
2023-01-06T13:01:03.765Z,2.31
2023-01-06T13:02:03.024Z,2.28
2023-01-06T13:03:03.022Z,2.30
2023-01-06T13:04:03.048Z,2.28
2023-01-06T13:05:02.897Z,2.29
2023-01-06T13:06:02.950Z,2.30
2023-01-06T13:07:03.025Z,2.31
2023-01-06T13:08:02.570Z,2.29
2023-01-06T13:09:02.280Z,2.29
2023-01-06T13:10:02.416Z,2.30
2023-01-06T13:11:02.418Z,2.30
2023-01-06T13:12:02.616Z,2.29
2023-01-06T13:13:03.010Z,2.30
2023-01-06T13:14:02.989Z,2.30
2023-01-06T13:15:03.058Z,2.29
2023-01-06T13:16:03.208Z,2.31
2023-01-06T13:17:03.006Z,2.28
2023-01-06T13:18:04.702Z,2.29
2023-01-06T13:19:02.893Z,2.30
2023-01-06T13:20:02.667Z,2.28
2023-01-06T13:21:02.785Z,2.27
2023-01-06T13:22:02.609Z,2.28